Time;durP1;ratioP1;P1;durP2;ratioP2;P2;SDS_P1;SDS_P2;PMS_P1;PMS_P2;Temp;Humidity;BMP_temperature;BMP_pressure;BME280_temperature;BME280_humidity;BME280_pressure;Samples;Min_cycle;Max_cycle;Signal;HPM_P1;HPM_P2
2021/04/09 00:00:11;;;;;;;1.48;1.38;;;;;;;;;;5097297;28;20181;-48
2021/04/09 00:02:37;;;;;;;2.22;1.40;;;;;;;;;;5102537;28;20434;-48
2021/04/09 00:05:08;;;;;;;1.55;1.25;;;;;;;;;;5089995;28;20210;-48
2021/04/09 00:07:34;;;;;;;3.67;1.60;;;;;;;;;;5091481;28;20631;-48
2021/04/09 00:10:00;;;;;;;1.83;1.17;;;;;;;;;;5097061;28;20215;-47
2021/04/09 00:12:26;;;;;;;2.30;1.75;;;;;;;;;;5096571;28;20230;-48
2021/04/09 00:14:52;;;;;;;2.28;1.63;;;;;;;;;;5094195;28;20546;-48
2021/04/09 00:17:18;;;;;;;2.15;1.80;;;;;;;;;;5094045;28;20185;-48
2021/04/09 00:19:44;;;;;;;2.33;1.30;;;;;;;;;;5106093;28;20211;-47
2021/04/09 00:22:10;;;;;;;1.52;1.42;;;;;;;;;;5085370;28;20197;-47
2021/04/09 00:24:36;;;;;;;2.45;1.60;;;;;;;;;;5079946;28;20258;-48
2021/04/09 00:27:02;;;;;;;2.20;1.65;;;;;;;;;;5097006;28;20252;-48
2021/04/09 00:29:28;;;;;;;1.98;1.35;;;;;;;;;;5088767;28;20209;-48
2021/04/09 00:31:54;;;;;;;1.60;1.30;;;;;;;;;;5103306;28;20177;-48
2021/04/09 00:34:20;;;;;;;1.40;1.30;;;;;;;;;;5089566;28;20181;-48
2021/04/09 00:36:46;;;;;;;1.48;1.38;;;;;;;;;;5094944;28;20181;-48
2021/04/09 00:39:12;;;;;;;1.60;1.50;;;;;;;;;;5097203;28;20180;-48
2021/04/09 00:41:41;;;;;;;1.70;1.58;;;;;;;;;;5105520;28;20227;-48
2021/04/09 00:44:11;;;;;;;1.42;1.33;;;;;;;;;;5080620;28;20276;-48
2021/04/09 00:46:38;;;;;;;1.90;1.67;;;;;;;;;;5090231;28;20174;-48
2021/04/09 00:49:04;;;;;;;2.10;1.35;;;;;;;;;;5086252;28;20305;-47
2021/04/09 00:51:31;;;;;;;3.22;1.60;;;;;;;;;;5093224;28;20179;-48
2021/04/09 00:53:57;;;;;;;1.33;1.23;;;;;;;;;;5080095;28;20456;-47
2021/04/09 00:56:31;;;;;;;2.13;1.50;;;;;;;;;;5107312;28;20264;-48
2021/04/09 00:58:57;;;;;;;2.15;1.60;;;;;;;;;;5075819;28;20178;-48
2021/04/09 01:01:23;;;;;;;1.42;1.30;;;;;;;;;;5102393;28;20632;-48
2021/04/09 01:03:51;;;;;;;1.60;1.50;;;;;;;;;;5104263;28;20503;-47
2021/04/09 01:06:17;;;;;;;1.50;1.25;;;;;;;;;;5083682;28;20166;-47
2021/04/09 01:08:43;;;;;;;1.58;1.40;;;;;;;;;;5116474;28;20463;-47
2021/04/09 01:11:09;;;;;;;1.35;1.25;;;;;;;;;;5115329;28;20181;-49
2021/04/09 01:13:35;;;;;;;1.30;1.20;;;;;;;;;;5094233;28;20174;-48
2021/04/09 01:16:03;;;;;;;2.53;1.40;;;;;;;;;;5077395;28;20185;-48
2021/04/09 01:18:34;;;;;;;1.27;1.17;;;;;;;;;;5090258;28;20205;-48
2021/04/09 01:21:03;;;;;;;1.75;1.40;;;;;;;;;;5083128;28;20186;-48
2021/04/09 01:23:29;;;;;;;2.90;1.55;;;;;;;;;;5102200;28;20201;-47
2021/04/09 01:26:14;;;;;;;1.48;1.38;;;;;;;;;;5102163;28;20216;-48
2021/04/09 01:28:40;;;;;;;1.77;1.40;;;;;;;;;;5076583;28;20202;-48
2021/04/09 01:31:06;;;;;;;1.30;1.15;;;;;;;;;;5093128;28;20182;-47
2021/04/09 01:33:34;;;;;;;1.40;1.30;;;;;;;;;;5077148;28;20171;-47
2021/04/09 01:36:04;;;;;;;1.20;1.10;;;;;;;;;;5078705;28;20248;-48
2021/04/09 01:38:32;;;;;;;1.35;1.23;;;;;;;;;;5087637;28;20495;-48
2021/04/09 01:40:58;;;;;;;1.52;1.13;;;;;;;;;;5089906;28;20196;-48
2021/04/09 01:43:25;;;;;;;1.45;1.35;;;;;;;;;;5075718;28;20464;-48
2021/04/09 01:45:52;;;;;;;1.40;1.23;;;;;;;;;;5090427;28;20280;-48
2021/04/09 01:48:18;;;;;;;1.73;1.30;;;;;;;;;;5107996;28;20205;-47
2021/04/09 01:50:46;;;;;;;1.30;1.20;;;;;;;;;;5087871;28;20464;-47
2021/04/09 01:53:12;;;;;;;1.10;1.00;;;;;;;;;;5075479;28;20249;-48
2021/04/09 01:55:41;;;;;;;1.10;1.00;;;;;;;;;;5093304;28;20482;-47
2021/04/09 01:58:10;;;;;;;2.05;1.35;;;;;;;;;;5094052;28;20456;-48
2021/04/09 02:00:36;;;;;;;2.05;1.48;;;;;;;;;;5089421;28;20235;-48
2021/04/09 02:03:04;;;;;;;1.55;1.17;;;;;;;;;;5080134;28;20186;-48
2021/04/09 02:05:31;;;;;;;1.20;1.10;;;;;;;;;;5102374;28;20293;-48
2021/04/09 02:07:58;;;;;;;1.30;1.20;;;;;;;;;;5099273;28;20212;-48
2021/04/09 02:10:24;;;;;;;1.25;1.15;;;;;;;;;;5104997;28;20552;-48
2021/04/09 02:12:52;;;;;;;1.95;1.40;;;;;;;;;;5097183;28;20193;-47
2021/04/09 02:15:23;;;;;;;1.45;1.30;;;;;;;;;;5095184;28;20242;-47
2021/04/09 02:17:49;;;;;;;1.33;1.15;;;;;;;;;;5089589;28;20214;-47
2021/04/09 02:20:17;;;;;;;1.30;1.20;;;;;;;;;;5088439;28;20189;-48
2021/04/09 02:22:43;;;;;;;0.90;0.90;;;;;;;;;;5090721;28;20206;-48
2021/04/09 02:25:10;;;;;;;1.60;1.27;;;;;;;;;;5095212;28;20173;-48
2021/04/09 02:27:36;;;;;;;1.27;1.13;;;;;;;;;;5095286;28;20205;-47
2021/04/09 02:30:10;;;;;;;1.63;1.15;;;;;;;;;;5098606;28;20247;-47
2021/04/09 02:32:36;;;;;;;1.45;1.10;;;;;;;;;;5097764;28;20177;-48
2021/04/09 02:35:04;;;;;;;1.55;1.13;;;;;;;;;;5083227;28;20186;-48
2021/04/09 02:37:30;;;;;;;1.63;1.08;;;;;;;;;;5098025;28;20260;-48
2021/04/09 02:39:58;;;;;;;1.20;1.10;;;;;;;;;;5098411;28;20193;-47
2021/04/09 02:42:25;;;;;;;1.15;0.90;;;;;;;;;;5079892;28;20205;-47
2021/04/09 02:44:52;;;;;;;1.33;1.10;;;;;;;;;;5088076;28;20177;-47
2021/04/09 02:47:22;;;;;;;1.75;1.00;;;;;;;;;;5094820;28;20247;-48
2021/04/09 02:49:51;;;;;;;1.13;0.93;;;;;;;;;;5093833;28;20225;-48
2021/04/09 02:52:21;;;;;;;1.20;1.10;;;;;;;;;;5086091;28;20190;-48
2021/04/09 02:54:54;;;;;;;0.95;0.90;;;;;;;;;;5115036;28;20243;-48
2021/04/09 02:57:21;;;;;;;1.23;1.00;;;;;;;;;;5113288;28;20169;-48
2021/04/09 02:59:49;;;;;;;1.35;1.15;;;;;;;;;;5094173;28;20184;-47
2021/04/09 03:02:15;;;;;;;1.67;1.10;;;;;;;;;;5076349;28;20494;-47
2021/04/09 03:04:41;;;;;;;1.73;1.23;;;;;;;;;;5092013;28;20239;-48
2021/04/09 03:07:09;;;;;;;1.30;1.20;;;;;;;;;;5090195;28;20174;-48
2021/04/09 03:09:35;;;;;;;1.00;1.00;;;;;;;;;;5092783;28;20517;-47
2021/04/09 03:12:01;;;;;;;1.85;1.40;;;;;;;;;;5074074;28;20445;-48
2021/04/09 03:14:28;;;;;;;1.08;1.02;;;;;;;;;;5092490;28;20561;-47
2021/04/09 03:17:00;;;;;;;0.90;0.88;;;;;;;;;;5094736;28;20170;-47
2021/04/09 03:19:26;;;;;;;1.13;1.10;;;;;;;;;;5075604;28;20175;-48
2021/04/09 03:21:52;;;;;;;1.45;1.23;;;;;;;;;;5087207;28;20272;-48
2021/04/09 03:24:18;;;;;;;1.13;1.02;;;;;;;;;;5089420;28;20496;-48
2021/04/09 03:26:44;;;;;;;1.42;1.33;;;;;;;;;;5078964;28;20185;-47
2021/04/09 03:29:10;;;;;;;0.90;0.90;;;;;;;;;;5102553;28;20266;-47
2021/04/09 03:31:36;;;;;;;1.13;1.00;;;;;;;;;;5092652;28;20182;-48
2021/04/09 03:34:02;;;;;;;1.30;1.20;;;;;;;;;;5092710;28;20178;-47
2021/04/09 03:36:28;;;;;;;1.40;1.25;;;;;;;;;;5080479;28;20170;-48
2021/04/09 03:38:54;;;;;;;1.20;1.10;;;;;;;;;;5094274;28;20205;-48
2021/04/09 03:41:20;;;;;;;1.30;1.05;;;;;;;;;;5080694;28;20245;-47
2021/04/09 03:43:46;;;;;;;1.23;1.13;;;;;;;;;;5093709;28;20553;-47
2021/04/09 03:46:12;;;;;;;1.13;1.02;;;;;;;;;;5076351;28;20183;-48
2021/04/09 03:48:38;;;;;;;1.58;1.05;;;;;;;;;;5097422;28;20204;-48
2021/04/09 03:51:04;;;;;;;1.27;1.17;;;;;;;;;;5092289;28;20584;-47
2021/04/09 03:53:30;;;;;;;1.15;0.90;;;;;;;;;;5093804;28;20170;-47
2021/04/09 03:55:56;;;;;;;2.00;1.10;;;;;;;;;;5080037;28;20184;-47
2021/04/09 03:58:22;;;;;;;1.30;1.20;;;;;;;;;;5106690;28;20453;-48
2021/04/09 04:00:48;;;;;;;1.20;1.10;;;;;;;;;;5083394;28;20209;-47
2021/04/09 04:03:15;;;;;;;1.10;1.00;;;;;;;;;;5099090;28;20177;-47
2021/04/09 04:05:41;;;;;;;2.05;1.00;;;;;;;;;;5078618;28;20228;-48
2021/04/09 04:08:07;;;;;;;1.10;0.95;;;;;;;;;;5091910;28;20579;-48
2021/04/09 04:10:33;;;;;;;0.80;0.80;;;;;;;;;;5109333;28;20177;-47
2021/04/09 04:12:58;;;;;;;1.20;1.10;;;;;;;;;;5097637;28;20238;-48
2021/04/09 04:15:24;;;;;;;1.30;1.05;;;;;;;;;;5097512;28;20583;-47
2021/04/09 04:17:51;;;;;;;1.10;1.00;;;;;;;;;;5105640;28;20192;-48
2021/04/09 04:20:17;;;;;;;1.83;1.23;;;;;;;;;;5110388;28;20178;-47
2021/04/09 04:22:43;;;;;;;1.10;1.00;;;;;;;;;;5089097;28;20178;-47
2021/04/09 04:25:09;;;;;;;1.27;1.10;;;;;;;;;;5117971;28;20184;-47
2021/04/09 04:27:35;;;;;;;1.30;1.10;;;;;;;;;;5108947;28;20205;-49
2021/04/09 04:30:02;;;;;;;3.28;1.52;;;;;;;;;;5091277;28;20170;-49
2021/04/09 04:32:28;;;;;;;5.47;2.45;;;;;;;;;;5096506;28;20241;-49
2021/04/09 04:34:54;;;;;;;4.05;2.40;;;;;;;;;;5095872;28;20178;-49
2021/04/09 04:37:20;;;;;;;2.92;2.63;;;;;;;;;;5084823;28;20179;-49
2021/04/09 04:39:46;;;;;;;4.07;3.22;;;;;;;;;;5096648;28;20232;-49
2021/04/09 04:42:12;;;;;;;4.88;3.72;;;;;;;;;;5096638;28;20162;-49
2021/04/09 04:44:38;;;;;;;4.03;3.50;;;;;;;;;;5089893;28;20181;-49
2021/04/09 04:47:04;;;;;;;3.75;2.58;;;;;;;;;;5115827;28;20181;-49
2021/04/09 04:49:31;;;;;;;4.53;3.17;;;;;;;;;;5091649;28;20178;-49
2021/04/09 04:51:57;;;;;;;6.07;4.65;;;;;;;;;;5082116;28;20600;-49
2021/04/09 04:54:23;;;;;;;3.95;3.20;;;;;;;;;;5095328;28;20178;-49
2021/04/09 04:56:49;;;;;;;4.72;2.60;;;;;;;;;;5083483;28;20247;-48
2021/04/09 04:59:15;;;;;;;5.18;3.35;;;;;;;;;;5095447;28;20206;-49
2021/04/09 05:01:41;;;;;;;3.33;2.90;;;;;;;;;;5102605;28;20198;-48
2021/04/09 05:04:07;;;;;;;4.63;3.47;;;;;;;;;;5076259;28;20586;-49
2021/04/09 05:06:33;;;;;;;2.85;2.60;;;;;;;;;;5092856;28;20212;-48
2021/04/09 05:08:59;;;;;;;6.47;2.83;;;;;;;;;;5092573;28;20210;-49
2021/04/09 05:11:25;;;;;;;5.18;2.72;;;;;;;;;;5095930;28;20169;-48
2021/04/09 05:13:51;;;;;;;5.32;2.90;;;;;;;;;;5111984;28;20169;-48
2021/04/09 05:16:17;;;;;;;4.38;2.92;;;;;;;;;;5104800;28;20573;-49
2021/04/09 05:18:43;;;;;;;3.63;2.38;;;;;;;;;;5091546;28;20544;-48
2021/04/09 05:21:09;;;;;;;6.22;2.50;;;;;;;;;;5090809;28;20229;-47
2021/04/09 05:23:35;;;;;;;5.50;2.42;;;;;;;;;;5094793;28;20181;-47
2021/04/09 05:26:02;;;;;;;4.90;2.58;;;;;;;;;;5096198;28;20542;-48
2021/04/09 05:28:28;;;;;;;6.03;2.80;;;;;;;;;;5096670;28;20193;-47
2021/04/09 05:30:55;;;;;;;6.75;2.55;;;;;;;;;;5100130;28;20189;-48
2021/04/09 05:33:21;;;;;;;6.45;2.60;;;;;;;;;;5081546;28;20154;-47
2021/04/09 05:35:47;;;;;;;7.82;2.97;;;;;;;;;;5096077;28;20174;-48
2021/04/09 05:38:13;;;;;;;6.45;2.53;;;;;;;;;;5098199;28;20170;-48
2021/04/09 05:40:40;;;;;;;6.50;2.70;;;;;;;;;;5095669;28;20197;-49
2021/04/09 05:43:07;;;;;;;4.60;2.60;;;;;;;;;;5095260;28;20242;-48
2021/04/09 05:45:33;;;;;;;10.23;2.60;;;;;;;;;;5095897;28;20178;-48
2021/04/09 05:48:06;;;;;;;7.18;2.65;;;;;;;;;;5098393;28;20290;-48
2021/04/09 05:50:33;;;;;;;10.13;2.40;;;;;;;;;;5095494;28;20166;-48
2021/04/09 05:52:59;;;;;;;7.30;3.05;;;;;;;;;;5109948;28;20207;-48
2021/04/09 05:55:25;;;;;;;7.40;3.05;;;;;;;;;;5116303;28;20169;-48
2021/04/09 05:57:51;;;;;;;7.57;2.70;;;;;;;;;;5110729;28;20247;-48
2021/04/09 06:00:18;;;;;;;7.97;2.90;;;;;;;;;;5081131;28;20450;-47
2021/04/09 06:02:44;;;;;;;5.25;2.50;;;;;;;;;;5085274;28;20181;-47
2021/04/09 06:05:11;;;;;;;6.78;2.10;;;;;;;;;;5095608;28;20174;-48
2021/04/09 06:07:37;;;;;;;8.73;2.47;;;;;;;;;;5094020;28;20208;-47
2021/04/09 06:10:04;;;;;;;9.90;2.72;;;;;;;;;;5095588;28;20214;-47
2021/04/09 06:12:31;;;;;;;6.57;2.30;;;;;;;;;;5099406;28;20173;-55
2021/04/09 06:14:57;;;;;;;5.22;2.13;;;;;;;;;;5102322;28;20190;-50
2021/04/09 06:17:23;;;;;;;3.17;2.28;;;;;;;;;;5078486;28;20182;-50
2021/04/09 06:19:49;;;;;;;6.30;2.33;;;;;;;;;;5083876;28;20581;-48
2021/04/09 06:22:15;;;;;;;10.95;2.67;;;;;;;;;;5074782;28;20198;-49
2021/04/09 06:24:41;;;;;;;4.63;1.90;;;;;;;;;;5090940;28;20182;-57
2021/04/09 06:27:08;;;;;;;5.70;2.35;;;;;;;;;;5078380;28;20285;-53
2021/04/09 06:29:34;;;;;;;6.35;2.20;;;;;;;;;;5097123;28;20246;-50
2021/04/09 06:32:00;;;;;;;5.28;2.55;;;;;;;;;;5094664;28;20545;-51
2021/04/09 06:34:26;;;;;;;4.03;2.08;;;;;;;;;;5094358;28;20249;-52
2021/04/09 06:36:52;;;;;;;7.47;2.15;;;;;;;;;;5079723;28;20448;-48
2021/04/09 06:39:18;;;;;;;2.95;1.77;;;;;;;;;;5097486;28;20223;-48
2021/04/09 06:41:44;;;;;;;5.00;2.10;;;;;;;;;;5093866;28;20173;-55
2021/04/09 06:44:11;;;;;;;3.92;1.83;;;;;;;;;;5075822;28;20187;-56
2021/04/09 06:46:39;;;;;;;3.30;1.65;;;;;;;;;;5103072;28;20177;-51
2021/04/09 06:49:05;;;;;;;2.70;1.60;;;;;;;;;;5101963;28;20258;-61
2021/04/09 06:51:31;;;;;;;4.38;2.10;;;;;;;;;;5093981;28;20166;-50
2021/04/09 06:54:11;;;;;;;6.50;2.15;;;;;;;;;;5156684;27;20477;-46
2021/04/09 06:56:38;;;;;;;4.13;1.90;;;;;;;;;;5152920;27;20172;-48
2021/04/09 06:59:07;;;;;;;6.70;1.95;;;;;;;;;;5146536;27;20207;-48
2021/04/09 07:01:35;;;;;;;4.30;1.63;;;;;;;;;;5150294;27;20180;-49
2021/04/09 07:04:02;;;;;;;3.05;1.83;;;;;;;;;;5152927;27;20184;-48
2021/04/09 07:06:31;;;;;;;3.88;1.60;;;;;;;;;;5153076;27;20203;-47
2021/04/09 07:08:57;;;;;;;4.85;1.95;;;;;;;;;;5149726;27;20187;-48
2021/04/09 07:11:23;;;;;;;3.53;1.90;;;;;;;;;;5147652;27;20184;-47
2021/04/09 07:13:50;;;;;;;4.03;1.42;;;;;;;;;;5134014;27;20212;-48
2021/04/09 07:16:16;;;;;;;3.10;1.70;;;;;;;;;;5140353;27;20176;-46
2021/04/09 07:18:51;;;;;;;2.45;1.60;;;;;;;;;;5150233;27;20233;-48
2021/04/09 07:21:20;;;;;;;2.88;1.48;;;;;;;;;;5142863;27;20254;-47
2021/04/09 07:23:46;;;;;;;4.47;2.00;;;;;;;;;;5153071;27;20179;-47
2021/04/09 07:26:12;;;;;;;4.40;1.70;;;;;;;;;;5149788;27;20184;-55
2021/04/09 07:28:38;;;;;;;2.65;1.95;;;;;;;;;;5145119;27;20189;-48
2021/04/09 07:31:08;;;;;;;3.33;1.50;;;;;;;;;;5150552;27;20180;-46
2021/04/09 07:33:34;;;;;;;2.15;1.67;;;;;;;;;;5151455;27;20227;-49
2021/04/09 07:38:30;;;;;;;5.47;1.50;;;;;;;;;;5103689;27;20539;-47
2021/04/09 07:41:00;;;;;;;2.72;1.60;;;;;;;;;;5075555;28;20182;-47
2021/04/09 07:43:30;;;;;;;3.78;1.58;;;;;;;;;;5091506;28;20174;-47
2021/04/09 07:45:57;;;;;;;3.17;1.60;;;;;;;;;;5091212;28;20572;-48
2021/04/09 07:48:29;;;;;;;2.50;1.33;;;;;;;;;;5091502;28;20604;-47
2021/04/09 07:50:56;;;;;;;5.57;1.48;;;;;;;;;;5091301;28;20247;-49
2021/04/09 07:53:31;;;;;;;5.97;1.70;;;;;;;;;;5092129;28;20169;-46
2021/04/09 07:56:10;;;;;;;6.57;1.75;;;;;;;;;;5091882;28;20178;-48
2021/04/09 07:58:37;;;;;;;3.67;1.75;;;;;;;;;;5091854;28;20174;-48
2021/04/09 08:01:04;;;;;;;5.43;1.30;;;;;;;;;;5091166;28;20205;-48
2021/04/09 08:03:34;;;;;;;3.70;1.58;;;;;;;;;;5091721;28;20173;-50
2021/04/09 08:06:08;;;;;;;3.55;1.48;;;;;;;;;;5091701;28;20178;-48
2021/04/09 08:08:34;;;;;;;3.40;1.55;;;;;;;;;;5091403;28;20447;-47
2021/04/09 08:11:18;;;;;;;1.50;1.30;;;;;;;;;;5091049;28;20181;-48
2021/04/09 08:13:45;;;;;;;2.53;1.50;;;;;;;;;;5091484;28;20205;-52
2021/04/09 08:16:31;;;;;;;3.50;1.45;;;;;;;;;;5091473;28;20255;-51
2021/04/09 08:19:01;;;;;;;5.18;1.58;;;;;;;;;;5079771;28;20176;-47
2021/04/09 08:21:28;;;;;;;4.65;1.67;;;;;;;;;;5091124;28;20635;-50
2021/04/09 08:23:55;;;;;;;4.47;1.63;;;;;;;;;;5090827;28;20213;-49
2021/04/09 08:26:21;;;;;;;6.68;1.60;;;;;;;;;;5091590;28;20166;-48
2021/04/09 08:28:48;;;;;;;3.88;1.30;;;;;;;;;;5090948;28;20182;-49
2021/04/09 08:31:15;;;;;;;3.10;1.35;;;;;;;;;;5090974;28;20196;-52
2021/04/09 08:33:42;;;;;;;4.05;1.33;;;;;;;;;;5090682;28;20448;-48
2021/04/09 08:36:08;;;;;;;4.10;1.35;;;;;;;;;;5087479;28;20507;-49
2021/04/09 08:38:35;;;;;;;7.57;1.90;;;;;;;;;;5068551;28;20202;-48
2021/04/09 08:41:01;;;;;;;3.92;1.45;;;;;;;;;;5070534;28;20296;-54
2021/04/09 08:43:27;;;;;;;3.90;1.52;;;;;;;;;;5070282;28;20170;-51
2021/04/09 08:45:54;;;;;;;5.10;1.60;;;;;;;;;;5065756;28;20803;-49
2021/04/09 08:48:21;;;;;;;175.35;60.80;;;;;;;;;;5048128;28;20183;-49
2021/04/09 08:50:47;;;;;;;301.33;115.35;;;;;;;;;;5058464;28;20193;-48
2021/04/09 08:53:23;;;;;;;395.33;152.77;;;;;;;;;;5055956;28;20186;-48
2021/04/09 08:55:50;;;;;;;450.48;204.55;;;;;;;;;;5056617;28;20167;-48
2021/04/09 08:58:16;;;;;;;503.55;240.90;;;;;;;;;;5063782;28;20784;-48
2021/04/09 09:00:43;;;;;;;514.53;262.90;;;;;;;;;;5056412;28;20259;-48
2021/04/09 09:03:27;;;;;;;589.05;303.90;;;;;;;;;;5057353;28;20622;-48
2021/04/09 09:06:00;;;;;;;631.58;331.70;;;;;;;;;;5044043;28;20224;-48
2021/04/09 09:08:41;;;;;;;649.03;348.00;;;;;;;;;;5053565;28;20274;-53
2021/04/09 09:11:08;;;;;;;756.42;412.90;;;;;;;;;;5052166;28;20175;-48
2021/04/09 09:13:47;;;;;;;782.80;431.58;;;;;;;;;;5056563;28;20482;-49
2021/04/09 09:16:19;;;;;;;779.95;422.67;;;;;;;;;;5049124;28;20203;-48
2021/04/09 09:18:50;;;;;;;729.10;412.75;;;;;;;;;;5049335;28;20566;-47
2021/04/09 09:21:17;;;;;;;729.53;394.90;;;;;;;;;;5049532;28;20200;-49
2021/04/09 09:23:45;;;;;;;678.63;368.23;;;;;;;;;;5050492;28;20634;-46
2021/04/09 09:26:30;;;;;;;638.13;349.08;;;;;;;;;;5056966;28;20472;-48
2021/04/09 09:29:14;;;;;;;601.17;320.05;;;;;;;;;;5047991;28;20175;-48
2021/04/09 09:31:41;;;;;;;548.50;289.98;;;;;;;;;;5056131;28;20437;-48
2021/04/09 09:34:20;;;;;;;284.88;122.35;;;;;;;;;;5047671;28;20228;-54
2021/04/09 09:36:59;;;;;;;344.30;150.77;;;;;;;;;;5056324;28;20711;-48
2021/04/09 09:39:31;;;;;;;322.55;136.32;;;;;;;;;;5041074;28;20176;-48
2021/04/09 09:41:57;;;;;;;268.52;118.20;;;;;;;;;;5056118;28;20163;-48
2021/04/09 09:44:23;;;;;;;220.45;98.20;;;;;;;;;;5046542;28;20573;-48
2021/04/09 09:46:53;;;;;;;223.38;98.20;;;;;;;;;;5056185;28;20190;-49
2021/04/09 09:51:39;;;;;;;197.80;83.70;;;;;;;;;;5164733;27;20469;-49
2021/04/09 09:54:05;;;;;;;190.40;83.35;;;;;;;;;;5153442;27;20537;-50
2021/04/09 09:56:31;;;;;;;179.30;75.07;;;;;;;;;;5153946;27;20250;-48
2021/04/09 09:58:57;;;;;;;147.80;67.75;;;;;;;;;;5151096;27;20247;-52
2021/04/09 10:01:26;;;;;;;146.95;63.35;;;;;;;;;;5145287;27;20188;-46
2021/04/09 10:03:53;;;;;;;122.80;55.00;;;;;;;;;;5146142;27;20204;-48
2021/04/09 10:06:26;;;;;;;101.40;49.03;;;;;;;;;;5153363;27;20190;-45
2021/04/09 10:08:52;;;;;;;98.50;46.70;;;;;;;;;;5151408;27;20217;-45
2021/04/09 10:11:23;;;;;;;102.72;46.28;;;;;;;;;;5152566;27;20200;-45
2021/04/09 10:13:50;;;;;;;94.10;43.88;;;;;;;;;;5133597;27;20271;-45
2021/04/09 10:16:16;;;;;;;91.10;41.17;;;;;;;;;;5152195;27;20609;-45
2021/04/09 10:18:42;;;;;;;33.90;19.13;;;;;;;;;;5137613;27;20181;-47
2021/04/09 10:21:25;;;;;;;25.58;13.63;;;;;;;;;;5145047;27;20180;-48
2021/04/09 10:24:12;;;;;;;28.08;13.85;;;;;;;;;;5151122;27;20201;-45
2021/04/09 10:26:43;;;;;;;43.45;19.52;;;;;;;;;;5152400;27;20607;-43
2021/04/09 10:29:22;;;;;;;35.50;19.90;;;;;;;;;;5142196;27;20164;-46
2021/04/09 10:31:48;;;;;;;41.00;18.95;;;;;;;;;;5138545;27;20183;-45
2021/04/09 10:34:19;;;;;;;33.28;17.33;;;;;;;;;;5132544;27;20179;-48
2021/04/09 10:36:46;;;;;;;34.90;17.77;;;;;;;;;;5151788;27;20180;-49
2021/04/09 10:39:15;;;;;;;29.60;15.95;;;;;;;;;;5147174;27;20262;-48
2021/04/09 10:41:52;;;;;;;17.05;8.20;;;;;;;;;;5131564;28;20543;-55
2021/04/09 10:44:22;;;;;;;14.48;8.15;;;;;;;;;;5151461;27;20176;-50
2021/04/09 10:46:52;;;;;;;14.38;7.78;;;;;;;;;;5134250;27;20244;-48
2021/04/09 10:49:19;;;;;;;15.45;8.50;;;;;;;;;;5151499;27;20194;-48
2021/04/09 10:51:47;;;;;;;14.95;6.40;;;;;;;;;;5152123;27;20211;-47
2021/04/09 10:54:15;;;;;;;12.70;7.03;;;;;;;;;;5112007;27;20545;-49
2021/04/09 10:56:42;;;;;;;9.77;6.07;;;;;;;;;;5125047;27;20568;-46
2021/04/09 10:59:09;;;;;;;12.75;5.90;;;;;;;;;;5111674;27;20180;-49
2021/04/09 11:01:36;;;;;;;13.25;5.63;;;;;;;;;;5118821;28;20269;-54
2021/04/09 11:04:02;;;;;;;9.65;5.47;;;;;;;;;;5120818;27;20172;-55
2021/04/09 11:06:29;;;;;;;8.07;5.45;;;;;;;;;;5117887;28;20176;-50
2021/04/09 11:08:56;;;;;;;10.05;5.05;;;;;;;;;;5124569;27;20181;-50
2021/04/09 11:11:27;;;;;;;7.88;5.15;;;;;;;;;;5132661;27;20210;-56
2021/04/09 11:13:59;;;;;;;6.85;4.47;;;;;;;;;;5126489;27;20184;-50
2021/04/09 11:16:25;;;;;;;8.77;5.20;;;;;;;;;;5124301;27;20173;-50
2021/04/09 11:18:53;;;;;;;11.10;4.57;;;;;;;;;;5128732;27;20187;-48
2021/04/09 11:21:38;;;;;;;8.80;4.97;;;;;;;;;;5123286;27;20181;-49
2021/04/09 11:24:04;;;;;;;8.27;4.65;;;;;;;;;;5118074;27;20451;-49
2021/04/09 11:26:34;;;;;;;11.50;4.88;;;;;;;;;;5101852;28;20254;-49
2021/04/09 11:29:00;;;;;;;7.32;4.18;;;;;;;;;;5120997;27;20189;-48
2021/04/09 11:31:26;;;;;;;8.55;4.60;;;;;;;;;;5119441;27;20253;-47
2021/04/09 11:34:02;;;;;;;6.82;3.85;;;;;;;;;;5134087;27;20181;-47
2021/04/09 11:36:28;;;;;;;11.10;3.92;;;;;;;;;;5138075;27;20193;-48
2021/04/09 11:39:20;;;;;;;11.10;4.25;;;;;;;;;;5127760;27;20173;-49
2021/04/09 11:41:47;;;;;;;7.68;3.80;;;;;;;;;;5113289;28;20189;-50
2021/04/09 11:44:27;;;;;;;5.72;3.80;;;;;;;;;;5112655;28;20521;-49
2021/04/09 11:46:53;;;;;;;6.15;4.10;;;;;;;;;;5105973;27;20187;-48
2021/04/09 11:49:28;;;;;;;8.13;3.53;;;;;;;;;;5123090;27;20260;-50
2021/04/09 11:51:58;;;;;;;6.53;3.92;;;;;;;;;;5130243;27;20838;-54
2021/04/09 11:54:30;;;;;;;9.05;4.03;;;;;;;;;;5137833;27;20741;-53
2021/04/09 11:56:58;;;;;;;8.82;4.20;;;;;;;;;;5122347;27;20181;-50
2021/04/09 11:59:25;;;;;;;8.68;3.92;;;;;;;;;;5115424;27;20256;-49
2021/04/09 12:01:52;;;;;;;9.32;3.70;;;;;;;;;;5114771;27;20495;-47
2021/04/09 12:04:31;;;;;;;6.75;3.55;;;;;;;;;;5117908;27;20210;-49
2021/04/09 12:06:57;;;;;;;5.30;3.63;;;;;;;;;;5124422;27;20172;-49
2021/04/09 12:09:23;;;;;;;5.40;3.67;;;;;;;;;;5133497;27;20204;-47
2021/04/09 12:11:49;;;;;;;7.50;4.00;;;;;;;;;;5130627;27;20558;-49
2021/04/09 12:14:36;;;;;;;8.07;3.55;;;;;;;;;;5113203;28;20231;-47
2021/04/09 12:17:03;;;;;;;6.05;3.25;;;;;;;;;;5102125;27;20193;-49
2021/04/09 12:19:29;;;;;;;5.90;3.10;;;;;;;;;;5122152;27;20867;-49
2021/04/09 12:21:55;;;;;;;6.40;3.33;;;;;;;;;;5115734;27;20183;-51
2021/04/09 12:24:21;;;;;;;7.95;3.17;;;;;;;;;;5116818;28;20200;-48
2021/04/09 12:26:47;;;;;;;6.32;3.50;;;;;;;;;;5130855;27;20180;-49
2021/04/09 12:29:13;;;;;;;6.30;3.03;;;;;;;;;;5121303;27;20181;-49
2021/04/09 12:31:39;;;;;;;5.03;3.45;;;;;;;;;;5116548;27;20257;-48
2021/04/09 12:34:05;;;;;;;6.53;3.17;;;;;;;;;;5101955;28;20469;-48
2021/04/09 12:36:31;;;;;;;5.68;3.00;;;;;;;;;;5109817;27;20604;-50
2021/04/09 12:38:57;;;;;;;6.25;3.30;;;;;;;;;;5126354;27;20182;-49
2021/04/09 12:41:24;;;;;;;3.92;2.90;;;;;;;;;;5117388;27;20260;-47
2021/04/09 12:43:50;;;;;;;2.95;2.38;;;;;;;;;;5109791;27;20264;-49
2021/04/09 12:46:16;;;;;;;6.43;2.95;;;;;;;;;;5107092;27;20264;-50
2021/04/09 12:48:42;;;;;;;3.47;2.60;;;;;;;;;;5130589;27;20211;-47
2021/04/09 12:51:08;;;;;;;4.32;2.72;;;;;;;;;;5124086;27;20580;-54
2021/04/09 12:53:34;;;;;;;5.47;2.83;;;;;;;;;;5111360;28;20418;-53
2021/04/09 12:56:00;;;;;;;4.15;2.33;;;;;;;;;;5112345;28;20179;-54
2021/04/09 12:58:26;;;;;;;3.95;2.55;;;;;;;;;;5104140;27;20194;-49
2021/04/09 13:00:52;;;;;;;4.18;2.60;;;;;;;;;;5112474;27;20597;-47
2021/04/09 13:03:18;;;;;;;4.43;2.40;;;;;;;;;;5131139;27;20184;-48
2021/04/09 13:05:45;;;;;;;5.35;2.50;;;;;;;;;;5114662;27;20189;-47
2021/04/09 13:08:13;;;;;;;5.00;2.83;;;;;;;;;;5115819;27;20184;-49
2021/04/09 13:10:39;;;;;;;3.95;2.78;;;;;;;;;;5128348;27;20289;-45
2021/04/09 13:13:05;;;;;;;4.55;2.58;;;;;;;;;;5112043;28;20177;-47
2021/04/09 13:15:31;;;;;;;7.35;2.50;;;;;;;;;;5104502;28;20182;-48
2021/04/09 13:17:57;;;;;;;8.43;2.83;;;;;;;;;;5100149;27;20624;-47
2021/04/09 13:20:23;;;;;;;7.75;2.90;;;;;;;;;;5107803;27;20536;-49
2021/04/09 13:22:49;;;;;;;12.30;2.67;;;;;;;;;;5122758;27;20180;-45
2021/04/09 13:25:15;;;;;;;3.53;2.30;;;;;;;;;;5136157;27;20164;-47
2021/04/09 13:27:42;;;;;;;7.57;2.53;;;;;;;;;;5126646;27;20183;-47
2021/04/09 13:30:08;;;;;;;6.50;2.50;;;;;;;;;;5114871;27;20192;-50
2021/04/09 13:32:34;;;;;;;9.32;2.22;;;;;;;;;;5102242;28;20264;-49
2021/04/09 13:35:00;;;;;;;6.55;2.53;;;;;;;;;;5116636;28;20263;-49
2021/04/09 13:37:27;;;;;;;7.78;2.65;;;;;;;;;;5115366;28;20184;-49
2021/04/09 13:39:53;;;;;;;7.47;2.80;;;;;;;;;;5104311;28;20442;-48
2021/04/09 13:42:19;;;;;;;4.70;2.67;;;;;;;;;;5127247;27;20179;-48
2021/04/09 13:44:45;;;;;;;9.48;2.60;;;;;;;;;;5104774;28;20191;-47
2021/04/09 13:47:11;;;;;;;5.13;2.42;;;;;;;;;;5126732;27;20268;-49
2021/04/09 13:49:37;;;;;;;2.78;2.33;;;;;;;;;;5118894;28;20296;-48
2021/04/09 13:52:03;;;;;;;6.18;2.22;;;;;;;;;;5103568;28;20461;-48
2021/04/09 13:54:29;;;;;;;4.90;2.25;;;;;;;;;;5104107;28;20193;-49
2021/04/09 13:56:55;;;;;;;5.30;2.50;;;;;;;;;;5110605;28;20169;-48
2021/04/09 13:59:21;;;;;;;4.10;1.98;;;;;;;;;;5108091;28;20177;-49
2021/04/09 14:01:47;;;;;;;4.47;1.98;;;;;;;;;;5103686;28;20169;-47
2021/04/09 14:04:13;;;;;;;4.57;2.15;;;;;;;;;;5111220;28;20651;-48
2021/04/09 14:06:40;;;;;;;5.65;2.30;;;;;;;;;;5115097;28;20161;-50
2021/04/09 14:09:06;;;;;;;3.95;1.83;;;;;;;;;;5111817;28;20182;-48
2021/04/09 14:11:32;;;;;;;4.35;2.22;;;;;;;;;;5124346;28;20733;-48
2021/04/09 14:13:58;;;;;;;4.43;1.92;;;;;;;;;;5103697;28;20177;-50
2021/04/09 14:16:24;;;;;;;5.05;2.13;;;;;;;;;;5123147;28;20181;-49
2021/04/09 14:18:50;;;;;;;7.18;2.83;;;;;;;;;;5121352;28;20267;-48
2021/04/09 14:21:16;;;;;;;5.00;2.40;;;;;;;;;;5110505;28;20178;-47
2021/04/09 14:23:42;;;;;;;10.52;2.53;;;;;;;;;;5106735;28;20177;-47
2021/04/09 14:26:08;;;;;;;7.30;2.40;;;;;;;;;;5108843;28;20185;-47
2021/04/09 14:28:34;;;;;;;6.75;2.60;;;;;;;;;;5110355;28;20207;-47
2021/04/09 14:31:00;;;;;;;8.60;2.10;;;;;;;;;;5100752;28;20591;-47
2021/04/09 14:33:26;;;;;;;12.27;2.50;;;;;;;;;;5112188;28;20180;-47
2021/04/09 14:35:53;;;;;;;5.60;2.47;;;;;;;;;;5119333;28;20201;-47
2021/04/09 14:38:19;;;;;;;7.30;2.17;;;;;;;;;;5121999;27;20540;-47
2021/04/09 14:40:46;;;;;;;5.15;2.30;;;;;;;;;;5116223;27;20613;-47
2021/04/09 14:43:12;;;;;;;3.90;1.70;;;;;;;;;;5116027;27;20188;-47
2021/04/09 14:45:38;;;;;;;3.63;2.05;;;;;;;;;;5115720;27;20568;-47